createdAt,value
2018-03-30T00:01:52.040Z,15.50
2018-03-30T00:04:19.712Z,13.90
2018-03-30T00:06:47.784Z,13.60
2018-03-30T00:09:27.152Z,13.90
2018-03-30T00:11:55.137Z,14.53
2018-03-30T00:14:22.763Z,14.90
2018-03-30T00:16:50.502Z,14.10
2018-03-30T00:19:18.109Z,13.67
2018-03-30T00:21:45.691Z,14.67
2018-03-30T00:24:13.655Z,14.77
2018-03-30T00:26:41.273Z,14.83
2018-03-30T00:29:08.929Z,15.23
2018-03-30T00:31:36.896Z,14.97
2018-03-30T00:34:04.490Z,14.60
2018-03-30T00:36:32.383Z,15.50
2018-03-30T00:39:00.007Z,16.10
2018-03-30T00:41:27.889Z,15.67
2018-03-30T00:43:55.563Z,16.10
2018-03-30T00:46:23.197Z,16.47
2018-03-30T00:48:50.929Z,17.43
2018-03-30T00:51:18.551Z,17.90
2018-03-30T00:53:49.098Z,16.83
2018-03-30T00:56:17.095Z,16.13
2018-03-30T00:58:44.780Z,16.80
2018-03-30T01:01:13.431Z,17.60
2018-03-30T01:03:41.166Z,17.20
2018-03-30T01:06:08.838Z,16.80
2018-03-30T01:08:36.752Z,16.07
2018-03-30T01:11:10.164Z,15.90
2018-03-30T01:13:37.779Z,17.43
2018-03-30T01:16:05.428Z,16.53
2018-03-30T01:18:33.044Z,18.80
2018-03-30T01:21:00.743Z,17.00
2018-03-30T01:23:28.343Z,17.70
2018-03-30T01:25:56.045Z,17.67
2018-03-30T01:28:24.356Z,19.30
2018-03-30T01:30:51.995Z,19.63
2018-03-30T01:33:19.673Z,19.30
2018-03-30T01:35:47.352Z,20.13
2018-03-30T01:38:15.205Z,19.17
2018-03-30T01:40:42.787Z,18.23
2018-03-30T01:43:11.046Z,20.73
2018-03-30T01:45:38.912Z,18.30
2018-03-30T01:48:06.767Z,22.40
2018-03-30T01:50:34.479Z,20.50
2018-03-30T01:53:02.219Z,20.30
2018-03-30T01:55:29.891Z,20.10
2018-03-30T01:57:57.471Z,18.37
2018-03-30T02:00:25.097Z,19.60
2018-03-30T02:02:52.734Z,20.63
2018-03-30T02:05:20.512Z,18.27
2018-03-30T02:07:48.488Z,20.83
2018-03-30T02:10:16.091Z,18.93
2018-03-30T02:12:43.682Z,19.67
2018-03-30T02:15:11.335Z,19.73
2018-03-30T02:17:38.923Z,20.20
2018-03-30T02:20:06.798Z,18.73
2018-03-30T02:22:34.760Z,21.53
2018-03-30T02:25:02.364Z,22.33
2018-03-30T02:27:30.304Z,22.97
2018-03-30T02:29:57.941Z,22.80
2018-03-30T02:32:25.747Z,19.13
2018-03-30T02:34:53.389Z,22.40
2018-03-30T02:37:21.258Z,21.50
2018-03-30T02:39:48.892Z,20.17
2018-03-30T02:42:16.564Z,21.90
2018-03-30T02:44:44.192Z,19.90
2018-03-30T02:47:11.850Z,21.70
2018-03-30T02:49:39.488Z,22.40
2018-03-30T02:52:07.084Z,22.80
2018-03-30T02:54:34.748Z,22.37
2018-03-30T02:57:02.638Z,21.90
2018-03-30T02:59:30.219Z,21.60
2018-03-30T03:01:58.084Z,22.40
2018-03-30T03:04:25.711Z,20.57
2018-03-30T03:06:53.370Z,20.77
2018-03-30T03:09:20.964Z,21.30
2018-03-30T03:11:48.566Z,20.20
2018-03-30T03:14:16.188Z,22.37
2018-03-30T03:16:43.979Z,20.57
2018-03-30T03:19:11.705Z,21.43
2018-03-30T03:21:39.302Z,21.60
2018-03-30T03:24:06.958Z,20.40
2018-03-30T03:26:34.811Z,21.23
2018-03-30T03:29:02.405Z,19.80
2018-03-30T03:31:30.185Z,20.67
2018-03-30T03:33:58.207Z,21.60
2018-03-30T03:36:26.174Z,21.37
2018-03-30T03:38:53.976Z,21.00
2018-03-30T03:41:21.842Z,21.20
2018-03-30T03:43:49.567Z,21.63
2018-03-30T03:46:17.365Z,22.57
2018-03-30T03:48:44.964Z,23.17
2018-03-30T03:51:12.564Z,21.57
2018-03-30T03:53:40.190Z,21.07
2018-03-30T03:56:07.953Z,21.30
2018-03-30T03:58:35.665Z,21.80
2018-03-30T04:01:03.318Z,21.80
2018-03-30T04:03:31.027Z,22.33
2018-03-30T04:05:58.634Z,20.80
2018-03-30T04:08:26.319Z,21.70
2018-03-30T04:10:54.029Z,20.47
2018-03-30T04:13:21.625Z,21.07
2018-03-30T04:15:49.239Z,22.87
2018-03-30T04:18:16.907Z,21.23
2018-03-30T04:20:44.599Z,21.97
2018-03-30T04:23:12.546Z,21.67
2018-03-30T04:25:40.230Z,22.27
2018-03-30T04:28:07.846Z,21.13
2018-03-30T04:30:35.587Z,22.97
2018-03-30T04:33:03.254Z,23.03
2018-03-30T04:35:30.943Z,21.97
2018-03-30T04:37:58.536Z,22.27
2018-03-30T04:40:26.425Z,22.37
2018-03-30T04:42:54.056Z,22.60
2018-03-30T04:45:21.662Z,21.60
2018-03-30T04:47:49.407Z,22.77
2018-03-30T04:50:17.018Z,23.30
2018-03-30T04:52:44.645Z,22.50
2018-03-30T04:55:12.314Z,22.20
2018-03-30T04:57:40.268Z,23.10
2018-03-30T05:00:08.443Z,25.70
2018-03-30T05:02:36.068Z,22.77
2018-03-30T05:05:03.652Z,24.23
2018-03-30T05:07:31.274Z,23.40
2018-03-30T05:09:58.951Z,23.53
2018-03-30T05:12:26.795Z,25.77
2018-03-30T05:14:54.421Z,24.37
2018-03-30T05:17:22.273Z,24.93
2018-03-30T05:19:49.991Z,24.23
2018-03-30T05:22:17.583Z,23.40
2018-03-30T05:24:45.583Z,24.30
2018-03-30T05:27:13.547Z,23.43
2018-03-30T05:29:41.155Z,23.40
2018-03-30T05:32:09.068Z,22.63
2018-03-30T05:34:36.660Z,24.57
2018-03-30T05:37:04.497Z,24.43
2018-03-30T05:39:32.121Z,26.30
2018-03-30T05:41:59.778Z,25.73
2018-03-30T05:44:27.707Z,24.70
2018-03-30T05:46:55.485Z,23.70
2018-03-30T05:49:23.185Z,24.67
2018-03-30T05:51:51.008Z,24.73
2018-03-30T05:54:18.691Z,23.13
2018-03-30T05:56:46.342Z,25.50
2018-03-30T05:59:14.207Z,23.67
2018-03-30T06:01:41.999Z,24.47
2018-03-30T06:04:09.835Z,24.87
2018-03-30T06:06:37.782Z,25.33
2018-03-30T06:09:06.366Z,24.73
2018-03-30T06:11:33.944Z,24.53
2018-03-30T06:14:01.524Z,23.80
2018-03-30T06:16:29.142Z,23.87
2018-03-30T06:18:56.799Z,25.20
2018-03-30T06:21:24.459Z,23.33
2018-03-30T06:23:52.074Z,23.10
2018-03-30T06:26:19.729Z,24.63
2018-03-30T06:28:47.391Z,25.43
2018-03-30T06:31:15.325Z,25.50
2018-03-30T06:33:43.138Z,27.47
2018-03-30T06:36:11.051Z,26.80
2018-03-30T06:38:38.655Z,26.00
2018-03-30T06:41:06.489Z,23.90
2018-03-30T06:43:34.992Z,26.23
2018-03-30T06:46:02.625Z,25.10
2018-03-30T06:48:30.571Z,26.60
2018-03-30T06:50:58.171Z,27.80
2018-03-30T06:53:25.823Z,25.20
2018-03-30T06:55:53.736Z,26.67
2018-03-30T06:58:21.412Z,25.67
2018-03-30T07:00:49.375Z,26.47
2018-03-30T07:03:17.077Z,27.20
2018-03-30T07:05:44.694Z,27.80
2018-03-30T07:08:12.305Z,24.77
2018-03-30T07:10:39.920Z,25.70
2018-03-30T07:13:07.834Z,24.70
2018-03-30T07:15:35.452Z,25.43
2018-03-30T07:18:03.209Z,25.17
2018-03-30T07:20:31.132Z,24.47
2018-03-30T07:22:58.744Z,25.50
2018-03-30T07:25:26.601Z,25.77
2018-03-30T07:27:54.254Z,26.20
2018-03-30T07:30:22.274Z,25.50
2018-03-30T07:32:49.877Z,23.67
2018-03-30T07:35:17.478Z,26.63
2018-03-30T07:37:45.125Z,25.23
2018-03-30T07:40:12.962Z,26.20
2018-03-30T07:42:40.537Z,23.80
2018-03-30T07:45:08.174Z,25.37
2018-03-30T07:47:35.761Z,26.60
2018-03-30T07:50:03.399Z,29.57
2018-03-30T07:52:31.158Z,28.73
2018-03-30T07:54:58.733Z,27.20
2018-03-30T07:57:26.782Z,26.67
2018-03-30T07:59:54.387Z,26.43
2018-03-30T08:02:22.065Z,25.57
2018-03-30T08:04:49.725Z,24.90
2018-03-30T08:07:17.365Z,25.63
2018-03-30T08:09:45.035Z,26.03
2018-03-30T08:12:12.794Z,26.87
2018-03-30T08:14:40.406Z,28.10
2018-03-30T08:17:08.384Z,23.53
2018-03-30T08:19:36.057Z,24.23
2018-03-30T08:22:03.667Z,24.53
2018-03-30T08:24:31.281Z,25.50
2018-03-30T08:26:59.147Z,25.57
2018-03-30T08:29:27.307Z,25.60
2018-03-30T08:31:54.919Z,24.80
2018-03-30T08:34:22.534Z,22.90
2018-03-30T08:36:50.235Z,25.57
2018-03-30T08:39:17.824Z,22.57
2018-03-30T08:41:45.802Z,23.17
2018-03-30T08:44:13.386Z,22.70
2018-03-30T08:46:41.010Z,23.80
2018-03-30T08:49:08.656Z,25.40
2018-03-30T08:51:36.585Z,25.10
2018-03-30T08:54:04.190Z,25.30
2018-03-30T08:56:31.830Z,26.70
2018-03-30T08:58:59.475Z,23.77
2018-03-30T09:01:27.144Z,25.73
2018-03-30T09:03:54.809Z,21.53
2018-03-30T09:06:22.487Z,26.93
2018-03-30T09:08:50.130Z,28.40
2018-03-30T09:11:17.713Z,27.53
2018-03-30T09:13:45.393Z,25.77
2018-03-30T09:16:13.720Z,25.90
2018-03-30T09:18:41.303Z,24.70
2018-03-30T09:21:08.874Z,23.60
2018-03-30T09:23:36.878Z,25.10
2018-03-30T09:26:04.470Z,26.60
2018-03-30T09:28:32.065Z,26.73
2018-03-30T09:30:59.709Z,25.87
2018-03-30T09:33:28.111Z,26.87
2018-03-30T09:35:55.706Z,26.30
2018-03-30T09:38:23.811Z,26.17
2018-03-30T09:40:51.402Z,26.10
2018-03-30T09:43:18.996Z,27.77
2018-03-30T09:45:46.873Z,26.30
2018-03-30T09:48:14.539Z,29.53
2018-03-30T09:50:42.531Z,27.77
2018-03-30T09:53:10.494Z,23.73
2018-03-30T09:55:38.371Z,21.77
2018-03-30T09:58:05.975Z,22.80
2018-03-30T10:00:33.669Z,21.00
2018-03-30T10:03:05.301Z,20.53
2018-03-30T10:05:33.000Z,19.70
2018-03-30T10:08:01.086Z,20.37
2018-03-30T10:10:28.696Z,19.27
2018-03-30T10:12:56.752Z,20.10
2018-03-30T10:15:24.357Z,16.43
2018-03-30T10:17:51.935Z,18.33
2018-03-30T10:20:19.974Z,19.33
2018-03-30T10:22:47.566Z,19.27
2018-03-30T10:25:15.150Z,18.50
2018-03-30T10:27:43.159Z,17.53
2018-03-30T10:30:10.791Z,15.87
2018-03-30T10:32:38.390Z,15.60
2018-03-30T10:35:06.302Z,16.57
2018-03-30T10:37:33.987Z,14.33
2018-03-30T10:40:01.586Z,15.53
2018-03-30T10:42:29.217Z,16.40
2018-03-30T10:44:56.912Z,15.00
2018-03-30T10:47:24.543Z,14.67
2018-03-30T10:49:52.234Z,15.93
2018-03-30T10:52:20.274Z,16.47
2018-03-30T10:54:47.950Z,14.43
2018-03-30T10:57:15.649Z,16.73
2018-03-30T10:59:43.312Z,14.77
2018-03-30T11:02:11.395Z,15.47
2018-03-30T11:04:38.991Z,13.13
2018-03-30T11:07:06.594Z,14.70
2018-03-30T11:09:34.212Z,14.07
2018-03-30T11:12:01.810Z,13.73
2018-03-30T11:14:29.875Z,14.73
2018-03-30T11:16:57.538Z,15.60
2018-03-30T11:19:25.149Z,14.57
2018-03-30T11:21:53.049Z,15.90
2018-03-30T11:24:20.962Z,16.03
2018-03-30T11:26:48.560Z,16.27
2018-03-30T11:29:16.222Z,16.70
2018-03-30T11:31:43.795Z,16.60
2018-03-30T11:34:11.413Z,27.30
2018-03-30T11:36:39.046Z,24.27
2018-03-30T11:39:06.646Z,15.83
2018-03-30T11:41:34.499Z,15.27
2018-03-30T11:44:02.123Z,16.30
2018-03-30T11:46:29.723Z,16.73
2018-03-30T11:48:57.331Z,14.30
2018-03-30T11:51:24.942Z,15.40
2018-03-30T11:53:52.929Z,15.63
2018-03-30T11:56:20.554Z,14.70
2018-03-30T11:58:48.378Z,13.60
2018-03-30T12:01:16.007Z,13.83
2018-03-30T12:03:43.691Z,12.40
2018-03-30T12:06:11.318Z,14.63
2018-03-30T12:08:38.907Z,14.00
2018-03-30T12:11:06.873Z,12.73
2018-03-30T12:13:34.732Z,13.10
2018-03-30T12:16:03.000Z,14.00
2018-03-30T12:18:30.726Z,14.00
2018-03-30T12:20:58.321Z,12.90
2018-03-30T12:23:25.972Z,13.60
2018-03-30T12:25:53.567Z,12.90
2018-03-30T12:28:21.464Z,14.00
2018-03-30T12:30:49.392Z,14.00
2018-03-30T12:33:17.534Z,13.67
2018-03-30T12:35:45.124Z,12.53
2018-03-30T12:38:12.804Z,14.50
2018-03-30T12:40:40.424Z,13.40
2018-03-30T12:43:08.086Z,12.07
2018-03-30T12:45:36.078Z,11.53
2018-03-30T12:48:03.745Z,10.90
2018-03-30T12:50:31.361Z,10.93
2018-03-30T12:53:01.853Z,11.30
2018-03-30T12:55:29.563Z,12.00
2018-03-30T12:57:57.159Z,13.00
2018-03-30T13:00:24.810Z,11.83
2018-03-30T13:02:52.653Z,12.00
2018-03-30T13:05:20.442Z,12.67
2018-03-30T13:07:48.020Z,11.47
2018-03-30T13:10:15.620Z,12.57
2018-03-30T13:12:43.312Z,12.10
2018-03-30T13:15:10.931Z,11.13
2018-03-30T13:17:38.606Z,11.90
2018-03-30T13:20:06.247Z,12.10
2018-03-30T13:22:33.906Z,14.70
2018-03-30T13:25:01.513Z,10.97
2018-03-30T13:27:29.114Z,9.77
2018-03-30T13:29:56.836Z,9.83
2018-03-30T13:32:24.432Z,11.23
2018-03-30T13:34:52.067Z,10.60
2018-03-30T13:37:20.372Z,10.63
2018-03-30T13:39:48.042Z,8.90
2018-03-30T13:42:15.644Z,9.93
2018-03-30T13:44:43.662Z,10.30
2018-03-30T13:47:11.447Z,9.23
2018-03-30T13:49:39.129Z,9.37
2018-03-30T13:52:31.274Z,9.83
2018-03-30T13:54:58.988Z,9.33
2018-03-30T13:57:32.271Z,8.80
2018-03-30T14:00:01.439Z,8.00
2018-03-30T14:02:41.308Z,8.40
2018-03-30T14:05:22.724Z,8.70
2018-03-30T14:08:08.104Z,8.00
2018-03-30T14:10:41.559Z,8.77
2018-03-30T14:13:09.260Z,8.10
2018-03-30T14:15:52.595Z,7.33
2018-03-30T14:18:47.276Z,6.83
2018-03-30T14:21:30.888Z,7.10
2018-03-30T14:24:02.992Z,7.20
2018-03-30T14:26:32.887Z,6.67
2018-03-30T14:29:10.964Z,7.27
2018-03-30T14:31:43.298Z,7.40
2018-03-30T14:34:14.827Z,7.20
2018-03-30T14:36:58.553Z,7.77
2018-03-30T14:39:26.368Z,7.27
2018-03-30T14:41:55.001Z,6.17
2018-03-30T14:44:38.605Z,7.57
2018-03-30T14:47:10.104Z,6.83
2018-03-30T14:49:38.661Z,6.33
2018-03-30T14:52:16.104Z,6.50
2018-03-30T14:54:50.502Z,6.30
2018-03-30T14:57:19.963Z,6.97
2018-03-30T15:00:20.025Z,6.70
2018-03-30T15:02:50.796Z,6.03
2018-03-30T15:05:30.307Z,6.30
2018-03-30T15:07:58.770Z,6.47
2018-03-30T15:10:51.168Z,6.63
2018-03-30T15:13:21.560Z,7.20
2018-03-30T15:15:51.601Z,6.83
2018-03-30T15:18:22.118Z,5.60
2018-03-30T15:20:52.427Z,5.73
2018-03-30T15:23:24.445Z,6.70
2018-03-30T15:25:55.771Z,6.30
2018-03-30T15:28:24.351Z,5.73
2018-03-30T15:33:55.903Z,5.10
2018-03-30T15:36:27.271Z,5.50
2018-03-30T15:38:54.901Z,6.30
2018-03-30T15:41:22.977Z,6.07
2018-03-30T15:43:52.618Z,6.50
2018-03-30T15:49:24.468Z,5.50
2018-03-30T15:51:54.798Z,6.63
2018-03-30T15:54:21.860Z,6.10
2018-03-30T15:56:49.521Z,6.00
2018-03-30T15:59:17.184Z,6.60
2018-03-30T16:01:44.870Z,6.83
2018-03-30T16:04:12.440Z,7.43
2018-03-30T16:06:40.029Z,6.30
2018-03-30T16:09:09.520Z,6.90
2018-03-30T16:11:37.953Z,7.67
2018-03-30T16:14:05.569Z,6.97
2018-03-30T16:16:33.454Z,7.07
2018-03-30T16:19:00.520Z,6.70
2018-03-30T16:21:28.385Z,7.30
2018-03-30T16:23:55.488Z,7.20
2018-03-30T16:26:22.892Z,6.97
2018-03-30T16:28:50.519Z,7.40
2018-03-30T16:31:17.577Z,7.20
2018-03-30T16:33:44.627Z,7.93
2018-03-30T16:36:11.727Z,7.30
2018-03-30T16:38:38.772Z,7.00
2018-03-30T16:41:05.849Z,6.20
2018-03-30T16:43:33.086Z,6.00
2018-03-30T16:46:00.145Z,6.97
2018-03-30T16:48:27.190Z,6.33
2018-03-30T16:50:54.304Z,6.57
2018-03-30T16:53:21.363Z,9.03
2018-03-30T16:55:48.793Z,7.40
2018-03-30T16:58:19.135Z,7.60
2018-03-30T17:00:46.286Z,6.80
2018-03-30T17:03:13.323Z,8.83
2018-03-30T17:05:40.738Z,9.47
2018-03-30T17:08:07.822Z,9.57
2018-03-30T17:10:36.344Z,7.77
2018-03-30T17:13:03.673Z,7.57
2018-03-30T17:15:30.733Z,9.77
2018-03-30T17:17:58.366Z,8.00
2018-03-30T17:20:25.412Z,7.60
2018-03-30T17:22:52.701Z,8.00
2018-03-30T17:25:19.850Z,7.40
2018-03-30T17:27:46.948Z,8.53
2018-03-30T17:30:14.050Z,8.60
2018-03-30T17:32:41.180Z,8.60
2018-03-30T17:35:08.215Z,8.30
2018-03-30T17:37:35.575Z,7.83
2018-03-30T17:40:02.648Z,8.00
2018-03-30T17:42:29.972Z,8.53
2018-03-30T17:44:57.629Z,9.10
2018-03-30T17:47:24.678Z,9.60
2018-03-30T17:49:51.730Z,8.30
2018-03-30T17:52:18.810Z,9.20
2018-03-30T17:54:45.863Z,8.93
2018-03-30T17:57:12.970Z,8.23
2018-03-30T17:59:40.023Z,9.30
2018-03-30T18:02:07.376Z,9.13
2018-03-30T18:04:34.449Z,9.20
2018-03-30T18:07:01.512Z,7.80
2018-03-30T18:09:28.592Z,8.90
2018-03-30T18:11:55.687Z,8.40
2018-03-30T18:14:22.776Z,8.20
2018-03-30T18:16:49.856Z,8.90
2018-03-30T18:19:16.975Z,9.60
2018-03-30T18:21:44.018Z,9.10
2018-03-30T18:24:11.068Z,10.10
2018-03-30T18:26:38.181Z,8.33
2018-03-30T18:29:05.221Z,9.97
2018-03-30T18:31:32.294Z,9.47
2018-03-30T18:33:59.732Z,11.43
2018-03-30T18:36:26.785Z,10.37
2018-03-30T18:38:53.843Z,10.77
2018-03-30T18:41:20.949Z,11.10
2018-03-30T18:43:48.437Z,11.27
2018-03-30T18:46:15.510Z,11.77
2018-03-30T18:48:42.947Z,11.67
2018-03-30T18:51:10.067Z,11.87
2018-03-30T18:53:37.134Z,11.50
2018-03-30T18:56:04.200Z,11.20
2018-03-30T18:58:31.323Z,11.23
2018-03-30T19:00:58.387Z,10.40
2018-03-30T19:03:25.520Z,10.67
2018-03-30T19:05:52.844Z,12.00
2018-03-30T19:08:19.931Z,12.07
2018-03-30T19:10:47.030Z,10.60
2018-03-30T19:13:14.674Z,12.23
2018-03-30T19:15:41.743Z,11.37
2018-03-30T19:18:08.804Z,11.47
2018-03-30T19:20:35.876Z,11.63
2018-03-30T19:23:02.930Z,11.10
2018-03-30T19:25:30.363Z,11.80
2018-03-30T19:27:57.432Z,11.57
2018-03-30T19:30:24.550Z,12.00
2018-03-30T19:32:51.944Z,12.57
2018-03-30T19:35:19.014Z,11.27
2018-03-30T19:37:46.066Z,12.20
2018-03-30T19:40:13.244Z,13.53
2018-03-30T19:42:40.335Z,12.73
2018-03-30T19:45:07.446Z,12.07
2018-03-30T19:47:34.556Z,12.60
2018-03-30T19:50:01.629Z,13.33
2018-03-30T19:52:28.695Z,14.00
2018-03-30T19:54:56.277Z,14.77
2018-03-30T19:57:23.766Z,12.00
2018-03-30T19:59:51.125Z,13.00
2018-03-30T20:02:18.498Z,12.00
2018-03-30T20:04:45.839Z,14.50
2018-03-30T20:07:12.902Z,12.30
2018-03-30T20:09:39.986Z,12.37
2018-03-30T20:12:07.034Z,13.67
2018-03-30T20:14:34.154Z,14.43
2018-03-30T20:17:01.311Z,14.17
2018-03-30T20:19:28.383Z,15.17
2018-03-30T20:21:55.437Z,13.93
2018-03-30T20:24:23.120Z,12.97
2018-03-30T20:26:50.191Z,14.93
2018-03-30T20:29:17.535Z,12.67
2018-03-30T20:31:44.694Z,14.33
2018-03-30T20:34:12.137Z,14.13
2018-03-30T20:36:39.190Z,14.97
2018-03-30T20:39:06.278Z,14.03
2018-03-30T20:41:33.386Z,14.17
2018-03-30T20:44:00.457Z,13.00
2018-03-30T20:46:27.545Z,14.40
2018-03-30T20:48:54.721Z,15.63
2018-03-30T20:51:21.825Z,14.37
2018-03-30T20:53:49.151Z,13.30
2018-03-30T20:56:16.561Z,15.77
2018-03-30T20:58:43.689Z,15.23
2018-03-30T21:01:11.184Z,14.90
2018-03-30T21:03:38.232Z,13.97
2018-03-30T21:06:05.693Z,13.30
2018-03-30T21:08:32.911Z,13.80
2018-03-30T21:10:59.984Z,14.00
2018-03-30T21:13:27.071Z,13.97
2018-03-30T21:15:54.219Z,14.30
2018-03-30T21:18:21.352Z,14.00
2018-03-30T21:20:48.432Z,14.10
2018-03-30T21:23:15.517Z,15.17
2018-03-30T21:25:42.639Z,14.93
2018-03-30T21:28:09.808Z,14.70
2018-03-30T21:30:36.897Z,14.73
2018-03-30T21:33:04.072Z,12.80
2018-03-30T21:35:31.138Z,12.87
2018-03-30T21:37:58.193Z,15.00
2018-03-30T21:40:25.664Z,13.77
2018-03-30T21:42:52.763Z,14.87
2018-03-30T21:45:19.830Z,14.30
2018-03-30T21:47:46.925Z,14.73
2018-03-30T21:50:14.011Z,14.97
2018-03-30T21:52:41.221Z,14.00
2018-03-30T21:55:08.276Z,13.70
2018-03-30T21:57:35.339Z,14.23
2018-03-30T22:00:02.452Z,15.20
2018-03-30T22:02:29.552Z,15.10
2018-03-30T22:04:56.775Z,14.07
2018-03-30T22:07:23.900Z,15.33
2018-03-30T22:09:50.949Z,15.33
2018-03-30T22:12:18.001Z,12.50
2018-03-30T22:14:45.079Z,14.40
2018-03-30T22:17:12.130Z,13.53
2018-03-30T22:19:39.202Z,14.57
2018-03-30T22:22:06.304Z,15.73
2018-03-30T22:24:33.376Z,15.67
2018-03-30T22:27:00.732Z,15.67
2018-03-30T22:29:28.207Z,15.43
2018-03-30T22:31:55.283Z,15.40
2018-03-30T22:34:22.390Z,15.63
2018-03-30T22:36:49.533Z,15.43
2018-03-30T22:39:16.635Z,15.90
2018-03-30T22:41:43.691Z,16.47
2018-03-30T22:44:10.793Z,15.50
2018-03-30T22:46:37.982Z,16.50
2018-03-30T22:49:07.121Z,14.77
2018-03-30T22:51:34.362Z,15.53
2018-03-30T22:54:01.435Z,15.33
2018-03-30T22:56:28.730Z,14.03
2018-03-30T22:58:56.223Z,17.87
2018-03-30T23:01:23.619Z,16.47
2018-03-30T23:03:50.655Z,15.70
2018-03-30T23:06:17.750Z,15.70
2018-03-30T23:08:44.813Z,17.60
2018-03-30T23:11:12.296Z,16.20
2018-03-30T23:13:38.946Z,15.40
2018-03-30T23:16:06.025Z,16.20
2018-03-30T23:18:33.105Z,17.57
2018-03-30T23:21:00.149Z,18.10
2018-03-30T23:23:27.209Z,17.60
2018-03-30T23:25:54.686Z,16.90
2018-03-30T23:28:22.491Z,17.73
2018-03-30T23:30:50.033Z,19.10
2018-03-30T23:33:17.489Z,19.63
2018-03-30T23:35:44.824Z,19.50
2018-03-30T23:38:12.350Z,18.43
2018-03-30T23:40:40.088Z,19.13
2018-03-30T23:43:07.236Z,18.97
2018-03-30T23:45:34.300Z,17.60
2018-03-30T23:48:01.737Z,17.23
2018-03-30T23:50:28.789Z,19.77
2018-03-30T23:52:55.857Z,18.00
2018-03-30T23:55:23.017Z,18.80
2018-03-30T23:57:50.056Z,18.30
